Flag for Australia

Past Weather in 37°50'38.4"S, 144°55'53.5"E, Australia — Yesterday and Last 2 Weeks

Currently: 41 °F. Clear. (Weather station: Melbourne Airport, Australia). See more current weather

Past Weather in 37°50'38.4"S, 144°55'53.5"E — Graph

°F

37°50'38.4"S, 144°55'53.5"E Temperature Yesterday

Maximum temperature yesterday: 55 °F (at 12:30 pm)
Minimum temperature yesterday: 37 °F (at 11:30 pm)
Average temperature yesterday: 47 °F

High & Low Weather Summary for the Past Weeks

 TemperatureHumidityPressure
High59 °F (Jun 10, 1:30 pm)100% (Jun 9, 11:00 am)30.45 "Hg (Jun 9, 11:00 am)
Low32 °F (Jun 19, 5:30 am)42% (Jun 10, 1:30 pm)29.74 "Hg (Jun 11, 2:00 pm)
Average48 °F80%30.12 "Hg
* Reported Jun 8 9:00 pm — Jun 23 9:30 pm, 37°50'38.4"S, 144°55'53.5"E. Weather by CustomWeather, © 2024

Note: Actual official high and low records may vary slightly from our data, if they occured in-between our weather recording intervals... More about our weather records

37°50'38.4"S, 144°55'53.5"E Weather History for the Previous 24 Hours

Scroll right to see more
 ConditionsComfort  
Time TempWeatherWind HumidityBarometerVisibility
9:30 pm
Sun, Jun 23
41 °FClear.16 mph81%30.15 "Hg10 mi
9:00 pm45 °FClear.13 mph76%30.18 "Hg10 mi
8:30 pm45 °FClear.15 mph76%30.18 "Hg10 mi
8:00 pm43 °FClear.13 mph81%30.18 "HgN/A
7:30 pm43 °FClear.13 mph81%30.18 "HgN/A
7:00 pm46 °FClear.14 mph76%30.18 "HgN/A
6:30 pm46 °FClear.10 mph71%30.18 "HgN/A
6:00 pm48 °FPassing clouds.12 mph71%30.18 "HgN/A
5:30 pm48 °FPassing clouds.10 mph71%30.18 "HgN/A
5:00 pm52 °FPassing clouds.12 mph62%30.18 "HgN/A
4:30 pm54 °FSunny.14 mph58%30.18 "Hg10 mi
4:00 pm55 °FSunny.15 mph55%30.18 "Hg10 mi
3:30 pm57 °FSunny.15 mph51%30.18 "Hg10 mi
3:00 pm57 °FSunny.15 mph55%30.18 "Hg10 mi
2:30 pm57 °FPassing clouds.14 mph51%30.18 "HgN/A
2:00 pm57 °FPassing clouds.12 mph51%30.21 "HgN/A
1:30 pm57 °FPassing clouds.12 mph55%30.21 "HgN/A
1:00 pm55 °FPassing clouds.13 mph55%30.24 "HgN/A
12:30 pm55 °FSunny.12 mph59%30.24 "Hg10 mi
12:00 pm54 °FSunny.10 mph58%30.27 "Hg10 mi
11:30 am52 °FSunny.8 mph62%30.30 "Hg10 mi
11:00 am52 °FSunny.7 mph67%30.30 "Hg10 mi
10:30 am50 °FPassing clouds.6 mph67%30.30 "HgN/A
10:00 am48 °FPassing clouds.7 mph76%30.33 "HgN/A
9:30 am45 °FPassing clouds.8 mph81%30.33 "HgN/A
9:00 am41 °FPassing clouds.9 mph87%30.33 "HgN/A
8:30 am41 °FPassing clouds.10 mph87%30.33 "HgN/A
8:00 am37 °FPassing clouds.12 mph93%30.33 "HgN/A
7:30 am37 °FPassing clouds.12 mph93%30.33 "HgN/A
7:00 am37 °FPassing clouds.12 mph93%30.33 "HgN/A
6:30 am37 °FPassing clouds.10 mph93%30.33 "HgN/A
6:00 am36 °FPassing clouds.10 mph93%30.33 "HgN/A
5:30 am36 °FClear.9 mph93%30.33 "Hg10 mi
5:00 am36 °FPassing clouds.8 mph93%30.33 "HgN/A
4:30 am37 °FPassing clouds.9 mph93%30.33 "HgN/A
4:00 am39 °FPassing clouds.8 mph93%30.33 "HgN/A
3:30 am41 °FPassing clouds.7 mph93%30.36 "HgN/A
3:00 am39 °FPassing clouds.7 mph93%30.36 "HgN/A
2:30 am39 °FPassing clouds.6 mph93%30.36 "HgN/A
2:00 am39 °FPassing clouds.5 mph93%30.36 "HgN/A
1:30 am36 °FPassing clouds.1 mph100%30.36 "HgN/A
1:00 am36 °FPassing clouds.5 mph93%30.36 "HgN/A
12:30 am36 °FPassing clouds.6 mph93%30.39 "HgN/A
12:00 am37 °FPassing clouds.6 mph93%30.39 "HgN/A
11:30 pm
Sat, Jun 22
37 °FPassing clouds.6 mph93%30.39 "HgN/A
11:00 pm39 °FPassing clouds.6 mph93%30.39 "HgN/A
10:30 pm41 °FPassing clouds.1 mph87%30.39 "HgN/A
10:00 pm39 °FPassing clouds.No wind93%30.39 "HgN/A
Weather by CustomWeather, © 2024

See weather overview